createdAt,value
2023-01-12T00:01:56.942Z,0.05
2023-01-12T00:04:23.736Z,0.04
2023-01-12T00:06:50.375Z,0.39
2023-01-12T00:09:16.958Z,0.57
2023-01-12T00:11:43.660Z,0.61
2023-01-12T00:14:10.261Z,0.51
2023-01-12T00:16:38.649Z,0.34
2023-01-12T00:19:07.571Z,0.42
2023-01-12T00:21:34.189Z,0.24
2023-01-12T00:24:00.847Z,0.29
2023-01-12T00:26:27.455Z,0.41
2023-01-12T00:28:54.203Z,0.38
2023-01-12T00:31:20.917Z,0.42
2023-01-12T00:33:47.522Z,0.21
2023-01-12T00:36:17.817Z,-0.12
2023-01-12T00:38:44.502Z,-0.59
2023-01-12T00:41:14.272Z,-0.29
2023-01-12T00:43:40.914Z,-0.22
2023-01-12T00:46:08.125Z,-0.31
2023-01-12T00:48:34.820Z,-0.04
2023-01-12T00:51:04.081Z,0.02
2023-01-12T00:53:31.136Z,0.11
2023-01-12T00:56:02.590Z,0.16
2023-01-12T00:58:29.371Z,0.15
2023-01-12T01:01:07.562Z,0.12
2023-01-12T01:03:35.351Z,0.16
2023-01-12T01:06:06.705Z,0.10
2023-01-12T01:08:36.671Z,0.03
2023-01-12T01:11:04.427Z,0.42
2023-01-12T01:13:31.158Z,0.53
2023-01-12T01:16:02.389Z,0.66
2023-01-12T01:18:29.483Z,0.63
2023-01-12T01:20:56.150Z,0.47
2023-01-12T01:23:24.903Z,0.61
2023-01-12T01:25:51.865Z,0.74
2023-01-12T01:28:18.745Z,0.96
2023-01-12T01:30:46.517Z,0.95
2023-01-12T01:33:14.106Z,1.10
2023-01-12T01:35:41.120Z,0.99
2023-01-12T01:38:07.704Z,0.75
2023-01-12T01:40:34.328Z,1.00
2023-01-12T01:43:00.948Z,1.09
2023-01-12T01:45:27.749Z,0.54
2023-01-12T01:47:58.769Z,0.46
2023-01-12T01:50:32.546Z,0.78
2023-01-12T01:53:04.908Z,0.81
2023-01-12T01:55:53.566Z,1.19
2023-01-12T01:58:32.085Z,-0.05
2023-01-12T02:00:58.890Z,-0.13
2023-01-12T02:03:26.443Z,0.03
2023-01-12T02:05:55.624Z,0.22
2023-01-12T02:08:40.843Z,0.58
2023-01-12T02:11:07.840Z,0.62
2023-01-12T02:13:34.438Z,0.71
2023-01-12T02:16:20.880Z,0.59
2023-01-12T02:19:06.312Z,0.50
2023-01-12T02:21:57.564Z,0.62
2023-01-12T02:24:26.891Z,1.00
2023-01-12T02:27:27.410Z,1.73
2023-01-12T02:30:28.710Z,1.17
2023-01-12T02:33:08.597Z,0.49
2023-01-12T02:36:06.667Z,0.97
2023-01-12T02:39:08.843Z,0.97
2023-01-12T02:41:51.136Z,0.99
2023-01-12T02:44:34.925Z,0.59
2023-01-12T02:47:07.303Z,0.52
2023-01-12T02:49:41.453Z,0.14
2023-01-12T02:52:14.024Z,0.28
2023-01-12T02:54:43.488Z,0.46
2023-01-12T02:57:10.962Z,0.65
2023-01-12T02:59:40.560Z,0.33
2023-01-12T03:02:16.951Z,0.48
2023-01-12T03:04:43.802Z,0.70
2023-01-12T03:07:35.041Z,1.20
2023-01-12T03:10:32.182Z,1.16
2023-01-12T03:13:02.905Z,1.46
2023-01-12T03:15:29.652Z,1.57
2023-01-12T03:18:10.263Z,1.32
2023-01-12T03:20:45.469Z,1.51
2023-01-12T03:23:17.629Z,0.93
2023-01-12T03:25:45.152Z,1.12
2023-01-12T03:28:16.453Z,1.60
2023-01-12T03:30:54.917Z,1.51
2023-01-12T03:33:23.194Z,0.98
2023-01-12T03:36:05.010Z,1.00
2023-01-12T03:38:43.363Z,0.69
2023-01-12T03:41:18.400Z,0.28
2023-01-12T03:43:50.654Z,0.32
2023-01-12T03:46:36.724Z,0.58
2023-01-12T03:49:27.842Z,0.92
2023-01-12T03:51:57.599Z,0.92
2023-01-12T03:54:26.697Z,0.32
2023-01-12T03:56:54.542Z,0.10
2023-01-12T03:59:22.541Z,0.09
2023-01-12T04:01:49.285Z,-0.05
2023-01-12T04:04:15.983Z,0.09
2023-01-12T04:06:42.588Z,0.38
2023-01-12T04:09:09.498Z,0.83
2023-01-12T04:11:36.101Z,0.79
2023-01-12T04:14:02.724Z,0.84
2023-01-12T04:16:29.518Z,0.77
2023-01-12T04:18:56.209Z,0.86
2023-01-12T04:21:22.822Z,0.84
2023-01-12T04:23:49.502Z,0.89
2023-01-12T04:26:16.099Z,1.05
2023-01-12T04:28:42.707Z,1.04
2023-01-12T04:31:09.430Z,1.30
2023-01-12T04:33:36.064Z,1.59
2023-01-12T04:36:02.657Z,1.36
2023-01-12T04:38:29.350Z,1.32
2023-01-12T04:40:55.957Z,1.27
2023-01-12T04:43:22.545Z,1.77
2023-01-12T04:45:49.192Z,1.60
2023-01-12T04:48:15.831Z,1.32
2023-01-12T04:50:42.671Z,1.23
2023-01-12T04:53:11.196Z,1.21
2023-01-12T04:55:40.466Z,1.23
2023-01-12T04:58:07.878Z,1.39
2023-01-12T05:00:35.337Z,2.07
2023-01-12T05:03:02.376Z,1.59
2023-01-12T05:05:31.402Z,2.01
2023-01-12T05:08:02.726Z,1.99
2023-01-12T05:10:29.498Z,1.15
2023-01-12T05:12:56.705Z,1.17
2023-01-12T05:15:23.662Z,1.52
2023-01-12T05:17:50.287Z,0.98
2023-01-12T05:20:17.033Z,0.94
2023-01-12T05:22:43.620Z,1.20
2023-01-12T05:25:10.566Z,0.94
2023-01-12T05:27:37.164Z,1.20
2023-01-12T05:30:04.266Z,1.47
2023-01-12T05:32:30.863Z,1.73
2023-01-12T05:34:57.505Z,1.94
2023-01-12T05:37:24.145Z,1.58
2023-01-12T05:39:50.776Z,0.99
2023-01-12T05:42:17.366Z,1.51
2023-01-12T05:44:44.089Z,1.66
2023-01-12T05:47:10.724Z,1.30
2023-01-12T05:49:37.331Z,1.27
2023-01-12T05:52:04.060Z,1.05
2023-01-12T05:54:33.829Z,1.41
2023-01-12T05:57:00.436Z,0.92
2023-01-12T05:59:27.102Z,1.06
2023-01-12T06:01:56.567Z,0.94
2023-01-12T06:04:23.544Z,1.03
2023-01-12T06:06:50.149Z,1.09
2023-01-12T06:09:16.752Z,1.66
2023-01-12T06:11:43.354Z,1.64
2023-01-12T06:14:10.404Z,1.43
2023-01-12T06:16:38.647Z,1.37
2023-01-12T06:19:05.799Z,1.84
2023-01-12T06:21:33.911Z,2.31
2023-01-12T06:24:00.944Z,2.75
2023-01-12T06:26:27.873Z,2.28
2023-01-12T06:28:54.516Z,2.06
2023-01-12T06:31:21.121Z,1.93
2023-01-12T06:33:47.796Z,1.78
2023-01-12T06:36:14.578Z,1.47
2023-01-12T06:38:41.328Z,1.91
2023-01-12T06:41:10.633Z,2.10
2023-01-12T06:43:38.982Z,2.42
2023-01-12T06:46:05.650Z,2.56
2023-01-12T06:48:39.067Z,2.76
2023-01-12T06:51:06.333Z,1.90
2023-01-12T06:53:33.011Z,1.78
2023-01-12T06:55:59.625Z,2.20
2023-01-12T06:58:26.310Z,2.00
2023-01-12T07:00:52.929Z,2.08
2023-01-12T07:03:20.432Z,1.98
2023-01-12T07:05:47.063Z,1.78
2023-01-12T07:08:13.793Z,2.35
2023-01-12T07:10:40.456Z,2.53
2023-01-12T07:13:07.032Z,2.27
2023-01-12T07:15:33.737Z,2.31
2023-01-12T07:18:00.379Z,2.11
2023-01-12T07:20:27.727Z,2.53
2023-01-12T07:22:55.386Z,2.47
2023-01-12T07:25:22.181Z,2.65
2023-01-12T07:27:53.305Z,2.79
2023-01-12T07:30:20.655Z,2.17
2023-01-12T07:32:48.114Z,2.10
2023-01-12T07:35:15.737Z,2.06
2023-01-12T07:37:53.367Z,1.66
2023-01-12T07:40:20.592Z,1.86
2023-01-12T07:42:47.473Z,2.28
2023-01-12T07:45:14.127Z,2.82
2023-01-12T07:47:40.726Z,2.72
2023-01-12T07:50:07.796Z,2.60
2023-01-12T07:52:34.500Z,1.82
2023-01-12T07:55:01.120Z,2.17
2023-01-12T07:57:27.864Z,2.54
2023-01-12T07:59:54.451Z,2.32
2023-01-12T08:02:21.210Z,2.34
2023-01-12T08:04:47.867Z,1.93
2023-01-12T08:07:14.546Z,1.43
2023-01-12T08:09:41.188Z,1.40
2023-01-12T08:12:07.822Z,1.75
2023-01-12T08:14:36.622Z,1.72
2023-01-12T08:17:06.956Z,1.68
2023-01-12T08:19:39.581Z,1.53
2023-01-12T08:22:14.550Z,1.63
2023-01-12T08:24:46.051Z,1.50
2023-01-12T08:27:12.763Z,1.38
2023-01-12T08:29:45.100Z,1.15
2023-01-12T08:32:13.526Z,2.01
2023-01-12T08:34:43.668Z,1.81
2023-01-12T08:37:13.412Z,2.32
2023-01-12T08:39:40.258Z,2.28
2023-01-12T08:42:07.173Z,2.08
2023-01-12T08:44:33.799Z,2.46
2023-01-12T08:47:00.826Z,2.03
2023-01-12T08:49:29.466Z,1.95
2023-01-12T08:51:56.426Z,2.17
2023-01-12T08:54:23.430Z,2.01
2023-01-12T08:56:50.315Z,1.97
2023-01-12T08:59:16.946Z,2.21
2023-01-12T09:01:43.681Z,2.51
2023-01-12T09:04:10.566Z,2.11
2023-01-12T09:06:40.039Z,2.07
2023-01-12T09:09:09.923Z,2.23
2023-01-12T09:11:38.632Z,2.19
2023-01-12T09:14:05.685Z,2.18
2023-01-12T09:16:33.712Z,2.54
2023-01-12T09:19:00.973Z,2.87
2023-01-12T09:21:29.127Z,3.16
2023-01-12T09:23:56.362Z,3.32
2023-01-12T09:26:26.716Z,3.42
2023-01-12T09:28:53.346Z,3.61
2023-01-12T09:31:21.951Z,3.64
2023-01-12T09:33:49.280Z,3.64
2023-01-12T09:36:18.437Z,2.64
2023-01-12T09:38:46.794Z,2.65
2023-01-12T09:41:37.972Z,2.68
2023-01-12T09:44:05.535Z,2.91
2023-01-12T09:46:38.319Z,3.27
2023-01-12T09:49:06.687Z,3.72
2023-01-12T09:51:49.508Z,3.31
2023-01-12T09:54:19.358Z,3.81
2023-01-12T09:57:10.873Z,4.09
2023-01-12T09:59:52.196Z,3.26
2023-01-12T10:02:18.817Z,3.77
2023-01-12T10:04:49.134Z,4.04
2023-01-12T10:07:16.983Z,4.04
2023-01-12T10:09:43.797Z,4.06
2023-01-12T10:12:26.971Z,3.97
2023-01-12T10:15:04.001Z,3.76
2023-01-12T10:17:51.305Z,3.97
2023-01-12T10:20:29.670Z,4.36
2023-01-12T10:23:08.489Z,4.30
2023-01-12T10:25:37.911Z,4.70
2023-01-12T10:28:07.258Z,4.46
2023-01-12T10:30:39.061Z,4.58
2023-01-12T10:33:21.800Z,5.16
2023-01-12T10:35:48.410Z,5.14
2023-01-12T10:38:25.672Z,5.09
2023-01-12T10:41:10.318Z,4.80
2023-01-12T10:43:38.501Z,4.74
2023-01-12T10:46:17.726Z,4.67
2023-01-12T10:48:48.256Z,4.81
2023-01-12T10:51:33.680Z,4.50
2023-01-12T10:54:02.835Z,5.04
2023-01-12T10:56:38.987Z,4.86
2023-01-12T10:59:26.748Z,4.84
2023-01-12T11:02:13.299Z,5.23
2023-01-12T11:04:51.317Z,5.04
2023-01-12T11:07:28.817Z,5.28
2023-01-12T11:09:57.780Z,5.78
2023-01-12T11:12:38.600Z,5.48
2023-01-12T11:15:11.168Z,5.05
2023-01-12T11:18:16.286Z,5.63
2023-01-12T11:20:57.467Z,5.49
2023-01-12T11:23:33.914Z,5.60
2023-01-12T11:26:05.407Z,5.43
2023-01-12T11:28:43.631Z,5.82
2023-01-12T11:31:19.850Z,5.60
2023-01-12T11:34:03.295Z,5.32
2023-01-12T11:37:03.638Z,5.32
2023-01-12T11:39:31.640Z,5.42
2023-01-12T11:42:00.719Z,5.60
2023-01-12T11:44:43.482Z,5.65
2023-01-12T11:47:21.610Z,6.00
2023-01-12T11:49:55.406Z,6.38
2023-01-12T11:52:25.442Z,5.96
2023-01-12T11:54:52.351Z,5.77
2023-01-12T11:57:41.917Z,5.96
2023-01-12T12:00:47.088Z,6.30
2023-01-12T12:03:16.515Z,5.60
2023-01-12T12:06:02.059Z,5.78
2023-01-12T12:08:41.961Z,6.39
2023-01-12T12:11:22.572Z,6.73
2023-01-12T12:14:00.106Z,6.80
2023-01-12T12:16:56.191Z,6.99
2023-01-12T12:19:28.850Z,6.43
2023-01-12T12:22:08.287Z,6.83
2023-01-12T12:24:56.560Z,6.44
2023-01-12T12:27:39.402Z,6.17
2023-01-12T12:30:23.488Z,6.37
2023-01-12T12:32:59.800Z,6.20
2023-01-12T12:36:00.290Z,6.39
2023-01-12T12:38:47.120Z,6.17
2023-01-12T12:41:28.216Z,6.31
2023-01-12T12:44:27.076Z,6.31
2023-01-12T12:47:06.822Z,6.26
2023-01-12T12:49:36.041Z,6.40
2023-01-12T12:52:03.885Z,6.26
2023-01-12T12:54:32.269Z,6.27
2023-01-12T12:56:59.055Z,6.36
2023-01-12T12:59:55.151Z,6.38
2023-01-12T13:02:35.041Z,6.91
2023-01-12T13:05:05.576Z,6.70
2023-01-12T13:07:37.578Z,6.44
2023-01-12T13:10:31.148Z,6.47
2023-01-12T13:13:25.453Z,6.69
2023-01-12T13:16:14.738Z,6.77
2023-01-12T13:19:03.402Z,6.55
2023-01-12T13:21:56.283Z,6.53
2023-01-12T13:24:31.698Z,6.48
2023-01-12T13:26:58.524Z,6.67
2023-01-12T13:29:28.166Z,6.74
2023-01-12T13:31:58.341Z,6.91
2023-01-12T13:34:36.847Z,6.99
2023-01-12T13:37:27.974Z,6.94
2023-01-12T13:40:03.725Z,6.89
2023-01-12T13:42:30.912Z,7.01
2023-01-12T13:44:57.868Z,6.79
2023-01-12T13:47:26.842Z,6.68
2023-01-12T13:50:00.973Z,6.63
2023-01-12T13:52:35.207Z,6.91
2023-01-12T13:55:04.799Z,6.86
2023-01-12T13:57:31.982Z,6.95
2023-01-12T14:00:19.469Z,6.95
2023-01-12T14:02:46.529Z,6.75
2023-01-12T14:05:55.531Z,6.97
2023-01-12T14:08:34.413Z,7.04
2023-01-12T14:11:25.380Z,7.00
2023-01-12T14:14:07.863Z,6.72
2023-01-12T14:16:38.801Z,6.70
2023-01-12T14:19:27.766Z,6.82
2023-01-12T14:21:59.207Z,6.46
2023-01-12T14:24:25.960Z,6.52
2023-01-12T14:26:52.619Z,6.64
2023-01-12T14:29:19.391Z,6.92
2023-01-12T14:31:51.922Z,6.27
2023-01-12T14:34:31.486Z,6.19
2023-01-12T14:36:59.572Z,6.04
2023-01-12T14:39:30.022Z,5.95
2023-01-12T14:41:57.640Z,6.21
2023-01-12T14:44:26.529Z,6.40
2023-01-12T14:46:54.181Z,6.37
2023-01-12T14:49:29.745Z,6.40
2023-01-12T14:51:57.413Z,6.29
2023-01-12T14:54:32.609Z,6.37
2023-01-12T14:57:23.959Z,6.19
2023-01-12T14:59:51.084Z,5.95
2023-01-12T15:02:37.716Z,5.81
2023-01-12T15:05:18.831Z,5.59
2023-01-12T15:07:57.296Z,5.51
2023-01-12T15:10:28.700Z,5.58
2023-01-12T15:12:58.238Z,5.65
2023-01-12T15:15:29.813Z,5.72
2023-01-12T15:17:57.907Z,5.62
2023-01-12T15:20:26.438Z,5.39
2023-01-12T15:22:53.113Z,5.27
2023-01-12T15:25:19.716Z,5.09
2023-01-12T15:27:46.321Z,5.14
2023-01-12T15:30:13.257Z,5.25
2023-01-12T15:32:47.177Z,5.17
2023-01-12T15:35:26.551Z,4.96
2023-01-12T15:37:57.800Z,5.05
2023-01-12T15:40:26.291Z,5.03
2023-01-12T15:42:53.624Z,4.75
2023-01-12T15:45:31.576Z,4.86
2023-01-12T15:47:58.367Z,4.87
2023-01-12T15:50:25.037Z,4.93
2023-01-12T15:52:51.679Z,4.89
2023-01-12T15:55:21.074Z,4.68
2023-01-12T15:57:48.119Z,4.48
2023-01-12T16:00:19.914Z,4.35
2023-01-12T16:02:46.780Z,4.30
2023-01-12T16:05:13.648Z,4.31
2023-01-12T16:07:40.527Z,4.36
2023-01-12T16:10:07.997Z,4.35
2023-01-12T16:12:34.675Z,4.60
2023-01-12T16:15:01.344Z,4.66
2023-01-12T16:17:27.944Z,4.52
2023-01-12T16:19:56.003Z,4.36
2023-01-12T16:22:24.667Z,4.15
2023-01-12T16:24:52.869Z,4.19
2023-01-12T16:27:21.777Z,4.23
2023-01-12T16:29:48.621Z,4.03
2023-01-12T16:32:15.625Z,4.17
2023-01-12T16:34:42.309Z,4.30
2023-01-12T16:37:13.671Z,4.33
2023-01-12T16:39:41.191Z,4.16
2023-01-12T16:42:08.511Z,4.31
2023-01-12T16:44:38.014Z,4.24
2023-01-12T16:47:12.788Z,4.03
2023-01-12T16:49:39.853Z,4.21
2023-01-12T16:52:07.991Z,3.97
2023-01-12T16:54:34.734Z,3.92
2023-01-12T16:57:01.323Z,3.76
2023-01-12T16:59:27.957Z,3.84
2023-01-12T17:01:54.710Z,3.76
2023-01-12T17:04:21.554Z,3.74
2023-01-12T17:06:48.328Z,3.89
2023-01-12T17:09:15.887Z,3.72
2023-01-12T17:11:42.859Z,3.69
2023-01-12T17:14:11.291Z,3.62
2023-01-12T17:16:38.868Z,3.65
2023-01-12T17:19:05.575Z,3.89
2023-01-12T17:21:32.496Z,3.49
2023-01-12T17:23:59.163Z,3.49
2023-01-12T17:26:25.765Z,3.55
2023-01-12T17:28:55.408Z,3.56
2023-01-12T17:31:22.616Z,3.46
2023-01-12T17:33:49.589Z,3.42
2023-01-12T17:36:17.638Z,3.26
2023-01-12T17:38:44.292Z,3.34
2023-01-12T17:41:15.769Z,3.46
2023-01-12T17:43:42.383Z,3.40
2023-01-12T17:46:09.021Z,3.37
2023-01-12T17:48:35.614Z,3.49
2023-01-12T17:51:05.325Z,3.26
2023-01-12T17:53:31.976Z,3.34
2023-01-12T17:56:02.531Z,3.36
2023-01-12T17:58:29.133Z,3.27
2023-01-12T18:00:55.965Z,3.37
2023-01-12T18:03:22.664Z,3.31
2023-01-12T18:05:57.773Z,3.17
2023-01-12T18:08:29.743Z,3.09
2023-01-12T18:10:56.372Z,2.96
2023-01-12T18:13:25.327Z,2.97
2023-01-12T18:15:54.900Z,2.97
2023-01-12T18:18:21.792Z,3.02
2023-01-12T18:20:48.479Z,3.13
2023-01-12T18:23:15.073Z,3.11
2023-01-12T18:25:41.907Z,3.14
2023-01-12T18:28:08.520Z,3.05
2023-01-12T18:30:35.115Z,3.04
2023-01-12T18:33:01.967Z,2.89
2023-01-12T18:35:28.541Z,2.88
2023-01-12T18:37:55.212Z,2.91
2023-01-12T18:40:22.298Z,2.78
2023-01-12T18:42:48.897Z,2.76
2023-01-12T18:45:19.683Z,2.71
2023-01-12T18:47:46.506Z,2.78
2023-01-12T18:50:13.112Z,2.69
2023-01-12T18:52:39.810Z,2.71
2023-01-12T18:55:06.863Z,2.64
2023-01-12T18:57:34.637Z,2.72
2023-01-12T19:00:03.545Z,2.77
2023-01-12T19:02:30.361Z,2.51
2023-01-12T19:04:57.029Z,2.56
2023-01-12T19:07:25.746Z,2.37
2023-01-12T19:09:52.332Z,2.27
2023-01-12T19:12:18.949Z,2.39
2023-01-12T19:14:45.666Z,2.03
2023-01-12T19:17:12.285Z,2.01
2023-01-12T19:19:38.877Z,2.08
2023-01-12T19:22:06.695Z,2.13
2023-01-12T19:24:33.320Z,2.18
2023-01-12T19:26:59.953Z,2.24
2023-01-12T19:29:26.576Z,2.21
2023-01-12T19:31:53.178Z,2.10
2023-01-12T19:34:19.754Z,2.10
2023-01-12T19:36:46.351Z,2.08
2023-01-12T19:39:12.964Z,2.08
2023-01-12T19:41:39.567Z,2.23
2023-01-12T19:44:06.388Z,2.01
2023-01-12T19:46:33.355Z,2.02
2023-01-12T19:49:00.146Z,1.95
2023-01-12T19:51:26.749Z,2.11
2023-01-12T19:53:53.376Z,2.23
2023-01-12T19:56:20.008Z,2.13
2023-01-12T19:58:46.621Z,2.25
2023-01-12T20:01:23.238Z,2.24
2023-01-12T20:03:50.836Z,2.21
2023-01-12T20:06:17.872Z,2.07
2023-01-12T20:08:44.557Z,2.03
2023-01-12T20:11:11.645Z,2.16
2023-01-12T20:13:38.350Z,2.25
2023-01-12T20:16:09.287Z,2.57
2023-01-12T20:18:36.590Z,2.47
2023-01-12T20:21:08.219Z,2.44
2023-01-12T20:23:34.840Z,2.21
2023-01-12T20:26:01.632Z,2.17
2023-01-12T20:28:28.237Z,2.22
2023-01-12T20:30:54.998Z,2.25
2023-01-12T20:33:21.782Z,2.14
2023-01-12T20:35:48.431Z,2.01
2023-01-12T20:38:15.495Z,2.14
2023-01-12T20:40:45.715Z,2.06
2023-01-12T20:43:12.849Z,1.88
2023-01-12T20:45:41.594Z,1.81
2023-01-12T20:48:08.551Z,1.89
2023-01-12T20:50:35.816Z,1.78
2023-01-12T20:53:03.014Z,1.73
2023-01-12T20:55:30.888Z,1.68
2023-01-12T20:57:57.529Z,1.72
2023-01-12T21:00:24.130Z,1.75
2023-01-12T21:02:50.877Z,1.93
2023-01-12T21:05:17.483Z,1.89
2023-01-12T21:07:44.092Z,1.90
2023-01-12T21:10:11.285Z,1.74
2023-01-12T21:12:38.431Z,1.61
2023-01-12T21:15:05.555Z,1.56
2023-01-12T21:17:32.143Z,1.37
2023-01-12T21:19:58.741Z,1.42
2023-01-12T21:22:25.385Z,1.31
2023-01-12T21:24:51.970Z,1.15
2023-01-12T21:27:18.570Z,1.19
2023-01-12T21:29:45.155Z,1.19
2023-01-12T21:32:11.797Z,1.20
2023-01-12T21:34:38.450Z,1.25
2023-01-12T21:37:05.149Z,1.18
2023-01-12T21:39:31.915Z,1.28
2023-01-12T21:41:58.651Z,1.25
2023-01-12T21:44:25.355Z,1.22
2023-01-12T21:46:51.979Z,1.27
2023-01-12T21:49:18.562Z,1.30
2023-01-12T21:51:45.157Z,1.14
2023-01-12T21:54:11.776Z,1.05
2023-01-12T21:56:38.402Z,0.87
2023-01-12T21:59:05.053Z,0.78
2023-01-12T22:01:31.894Z,0.65
2023-01-12T22:03:58.718Z,0.67
2023-01-12T22:06:25.362Z,0.70
2023-01-12T22:08:51.958Z,0.63
2023-01-12T22:11:18.626Z,0.56
2023-01-12T22:13:45.391Z,0.65
2023-01-12T22:16:14.591Z,0.72
2023-01-12T22:18:45.358Z,0.79
2023-01-12T22:21:12.084Z,0.87
2023-01-12T22:23:39.147Z,0.83
2023-01-12T22:26:09.790Z,0.75
2023-01-12T22:28:38.755Z,0.79
2023-01-12T22:31:12.700Z,0.74
2023-01-12T22:33:39.671Z,0.76
2023-01-12T22:36:07.521Z,0.93
2023-01-12T22:38:34.769Z,0.92
2023-01-12T22:41:06.044Z,0.86
2023-01-12T22:43:33.063Z,0.62
2023-01-12T22:45:59.739Z,0.58
2023-01-12T22:48:27.690Z,0.75
2023-01-12T22:50:54.561Z,0.95
2023-01-12T22:53:22.828Z,1.07
2023-01-12T22:55:50.361Z,0.96
2023-01-12T22:58:17.333Z,1.33
2023-01-12T23:00:43.985Z,0.95
2023-01-12T23:03:12.447Z,0.76
2023-01-12T23:05:50.074Z,1.04
2023-01-12T23:08:16.748Z,1.32
2023-01-12T23:10:44.266Z,1.11
2023-01-12T23:13:15.457Z,1.19
2023-01-12T23:15:45.568Z,0.89
2023-01-12T23:18:14.739Z,0.70
2023-01-12T23:20:41.537Z,0.83
2023-01-12T23:23:09.204Z,0.91
2023-01-12T23:25:36.603Z,0.84
2023-01-12T23:28:04.173Z,1.03
2023-01-12T23:30:31.028Z,0.96
2023-01-12T23:33:02.423Z,0.93
2023-01-12T23:35:29.107Z,0.87
2023-01-12T23:37:55.781Z,0.95
2023-01-12T23:40:22.372Z,0.99
2023-01-12T23:42:48.984Z,1.11
2023-01-12T23:45:15.751Z,1.04
2023-01-12T23:47:42.468Z,1.06
2023-01-12T23:50:11.279Z,0.81
2023-01-12T23:52:38.610Z,0.30
2023-01-12T23:55:06.332Z,0.41
2023-01-12T23:57:33.455Z,0.07
